Time;durP1;ratioP1;P1;durP2;ratioP2;P2;SDS_P1;SDS_P2;PMS_P1;PMS_P2;Temp;Humidity;BMP_temperature;BMP_pressure;BME280_temperature;BME280_humidity;BME280_pressure;Samples;Min_cycle;Max_cycle;Signal;HPM_P1;HPM_P2
2023/06/12 00:01:03;;;;;;;;;;;;;;;22.38;36.08;101399.28;5109881;28;20374;-75
2023/06/12 00:03:29;;;;;;;;;;;;;;;22.36;35.58;101394.97;5111417;28;19919;-76
2023/06/12 00:05:58;;;;;;;;;;;;;;;22.33;35.52;101390.63;5111423;28;20405;-76
2023/06/12 00:08:25;;;;;;;;;;;;;;;22.29;35.52;101387.22;5114752;28;19923;-76
2023/06/12 00:10:51;;;;;;;;;;;;;;;22.23;36.01;101400.22;5115087;28;19994;-76
2023/06/12 00:13:16;;;;;;;;;;;;;;;22.19;35.74;101399.53;5115035;28;20026;-76
2023/06/12 00:15:41;;;;;;;;;;;;;;;22.15;35.60;101402.50;5113285;28;20327;-76
2023/06/12 00:18:07;;;;;;;;;;;;;;;22.10;36.63;101392.84;5115274;28;20013;-75
2023/06/12 00:20:33;;;;;;;;;;;;;;;22.06;35.50;101403.94;5114775;28;19934;-75
2023/06/12 00:22:58;;;;;;;;;;;;;;;22.00;35.69;101398.91;5113784;28;19953;-75
2023/06/12 00:25:27;;;;;;;;;;;;;;;21.95;36.31;101395.63;5113510;28;19950;-75
2023/06/12 00:27:52;;;;;;;;;;;;;;;21.90;36.25;101404.84;5114855;28;19943;-76
2023/06/12 00:30:18;;;;;;;;;;;;;;;21.87;35.72;101399.66;5114619;28;20322;-75
2023/06/12 00:32:43;;;;;;;;;;;;;;;21.84;36.62;101402.56;5114744;28;19983;-76
2023/06/12 00:35:09;;;;;;;;;;;;;;;21.81;35.54;101397.34;5114953;28;19920;-76
2023/06/12 00:37:34;;;;;;;;;;;;;;;21.80;36.61;101408.22;5114608;28;19916;-76
2023/06/12 00:40:00;;;;;;;;;;;;;;;21.76;35.83;101406.66;5130236;27;19980;-75
2023/06/12 00:42:45;;;;;;;;;;;;;;;21.71;36.51;101401.56;5109512;28;19922;-75
2023/06/12 00:45:12;;;;;;;;;;;;;;;21.69;36.86;101395.38;5100666;28;19919;-75
2023/06/12 00:47:38;;;;;;;;;;;;;;;21.69;36.47;101403.47;5113862;28;19965;-75
2023/06/12 00:50:04;;;;;;;;;;;;;;;21.63;36.57;101398.44;5110511;28;20379;-75
2023/06/12 00:52:34;;;;;;;;;;;;;;;21.57;36.88;101396.97;5092321;28;19948;-75
2023/06/12 00:55:00;;;;;;;;;;;;;;;21.51;36.80;101400.00;5107782;28;20014;-75
2023/06/12 00:57:26;;;;;;;;;;;;;;;21.47;36.79;101402.03;5114314;28;19984;-76
2023/06/12 00:59:52;;;;;;;;;;;;;;;21.46;37.46;101402.13;5113458;28;20351;-75
2023/06/12 01:02:18;;;;;;;;;;;;;;;21.44;36.76;101406.75;5111723;28;19924;-76
2023/06/12 01:04:43;;;;;;;;;;;;;;;21.37;36.83;101402.66;5112804;28;19931;-75
2023/06/12 01:07:20;;;;;;;;;;;;;;;21.34;36.52;101402.78;5130036;27;19994;-76
2023/06/12 01:09:54;;;;;;;;;;;;;;;21.29;37.27;101396.81;5104647;28;20057;-76
2023/06/12 01:12:20;;;;;;;;;;;;;;;21.27;37.17;101396.91;5112375;28;19919;-75
2023/06/12 01:14:46;;;;;;;;;;;;;;;21.21;37.32;101392.72;5113900;28;20333;-76
2023/06/12 01:17:11;;;;;;;;;;;;;;;21.15;37.72;101397.63;5128066;27;20014;-76
2023/06/12 01:19:37;;;;;;;;;;;;;;;21.11;37.52;101399.59;5111654;28;19927;-76
2023/06/12 01:22:05;;;;;;;;;;;;;;;21.08;37.18;101398.94;5095525;28;20018;-76
2023/06/12 01:24:40;;;;;;;;;;;;;;;21.06;37.56;101401.69;5112427;28;19919;-75
2023/06/12 01:27:06;;;;;;;;;;;;;;;21.03;38.12;101399.19;5115603;27;20052;-76
2023/06/12 01:29:35;;;;;;;;;;;;;;;20.97;37.75;101397.72;5125408;27;20023;-76
2023/06/12 01:32:08;;;;;;;;;;;;;;;20.92;38.02;101401.59;5129203;27;20107;-76
2023/06/12 01:34:50;;;;;;;;;;;;;;;20.88;38.03;101414.38;5113659;28;20293;-76
2023/06/12 01:37:31;;;;;;;;;;;;;;;20.83;38.29;101409.25;5129296;27;20200;-75
2023/06/12 01:39:58;;;;;;;;;;;;;;;20.79;38.37;101407.69;5122106;27;19923;-76
2023/06/12 01:42:28;;;;;;;;;;;;;;;20.74;38.20;101407.06;5109924;28;20319;-76
2023/06/12 01:44:54;;;;;;;;;;;;;;;20.71;38.38;101412.63;5111681;28;19916;-76
2023/06/12 01:47:20;;;;;;;;;;;;;;;20.67;38.46;101412.88;5128996;27;20366;-75
2023/06/12 01:49:46;;;;;;;;;;;;;;;20.62;38.85;101413.13;5111779;28;20369;-75
2023/06/12 01:52:12;;;;;;;;;;;;;;;20.60;37.95;101409.69;5128856;27;19924;-75
2023/06/12 01:54:38;;;;;;;;;;;;;;;20.57;38.91;101405.34;5121024;27;19927;-75
2023/06/12 01:57:05;;;;;;;;;;;;;;;20.53;38.75;101409.09;5111758;28;20292;-75
2023/06/12 01:59:34;;;;;;;;;;;;;;;20.48;38.79;101407.63;5111307;28;19979;-76
2023/06/12 02:02:00;;;;;;;;;;;;;;;20.45;38.81;101411.34;5101722;28;19959;-76
2023/06/12 02:04:28;;;;;;;;;;;;;;;20.43;39.00;101409.69;5111125;28;19919;-76
2023/06/12 02:06:54;;;;;;;;;;;;;;;20.35;38.75;101418.16;5111465;28;20273;-75
2023/06/12 02:09:19;;;;;;;;;;;;;;;20.28;38.94;101419.47;5112877;28;20002;-75
2023/06/12 02:11:45;;;;;;;;;;;;;;;20.19;39.13;101420.81;5094163;28;19930;-75
2023/06/12 02:14:10;;;;;;;;;;;;;;;20.11;39.18;101420.34;5127842;27;20454;-75
2023/06/12 02:16:36;;;;;;;;;;;;;;;20.03;39.23;101411.78;5111192;28;20020;-75
2023/06/12 02:19:02;;;;;;;;;;;;;;;19.94;39.47;101414.03;5111076;28;19927;-75
2023/06/12 02:21:27;;;;;;;;;;;;;;;19.88;39.45;101411.66;5128311;27;20405;-75
2023/06/12 02:23:53;;;;;;;;;;;;;;;19.82;39.57;101414.66;5111214;28;20002;-75
2023/06/12 02:26:19;;;;;;;;;;;;;;;19.79;39.93;101414.81;5111067;28;20270;-75
2023/06/12 02:29:04;;;;;;;;;;;;;;;19.73;39.97;101407.94;5110761;28;19961;-75
2023/06/12 02:31:30;;;;;;;;;;;;;;;19.68;40.33;101406.41;5127822;27;20664;-75
2023/06/12 02:33:55;;;;;;;;;;;;;;;19.59;40.05;101402.38;5110871;28;19919;-75
2023/06/12 02:36:21;;;;;;;;;;;;;;;19.52;40.10;101411.69;5093857;28;20358;-75
2023/06/12 02:38:46;;;;;;;;;;;;;;;19.47;40.41;101402.97;5111979;28;19928;-75
2023/06/12 02:41:12;;;;;;;;;;;;;;;19.39;40.43;101406.06;5127517;27;19920;-75
2023/06/12 02:43:38;;;;;;;;;;;;;;;19.33;40.96;101406.34;5112853;27;19923;-75
2023/06/12 02:46:04;;;;;;;;;;;;;;;19.28;41.06;101405.69;5093698;28;19920;-75
2023/06/12 02:48:31;;;;;;;;;;;;;;;19.23;40.88;101410.44;5122737;27;20355;-75
2023/06/12 02:50:57;;;;;;;;;;;;;;;19.16;40.95;101401.81;5110267;28;19920;-75
2023/06/12 02:53:22;;;;;;;;;;;;;;;19.08;41.18;101412.91;5110326;28;19980;-75
2023/06/12 02:55:51;;;;;;;;;;;;;;;19.03;41.23;101404.22;5127366;27;20018;-75
2023/06/12 02:58:17;;;;;;;;;;;;;;;18.98;41.79;101406.25;5110227;28;19915;-75
2023/06/12 03:00:43;;;;;;;;;;;;;;;18.96;42.03;101400.09;5120711;27;20047;-75
2023/06/12 03:03:08;;;;;;;;;;;;;;;18.92;42.10;101398.50;5097479;28;19920;-75
2023/06/12 03:05:36;;;;;;;;;;;;;;;18.89;42.15;101401.31;5117354;27;20390;-75
2023/06/12 03:08:04;;;;;;;;;;;;;;;18.87;42.07;101405.91;5093515;28;19965;-75
2023/06/12 03:10:30;;;;;;;;;;;;;;;18.83;42.39;101399.81;5110309;28;20339;-75
2023/06/12 03:12:57;;;;;;;;;;;;;;;18.81;42.10;101395.44;5110037;28;20025;-75
2023/06/12 03:15:24;;;;;;;;;;;;;;;18.79;42.98;101394.66;5109862;28;20337;-75
2023/06/12 03:17:49;;;;;;;;;;;;;;;18.78;43.00;101399.16;5117999;27;20401;-75
2023/06/12 03:20:15;;;;;;;;;;;;;;;18.79;42.72;101397.34;5109999;28;19915;-75
2023/06/12 03:22:41;;;;;;;;;;;;;;;18.80;43.35;101393.72;5111697;28;19923;-75
2023/06/12 03:25:07;;;;;;;;;;;;;;;18.83;41.57;101396.25;5111285;28;20298;-75
2023/06/12 03:27:33;;;;;;;;;;;;;;;18.84;42.37;101401.56;5109962;28;19911;-75
2023/06/12 03:29:58;;;;;;;;;;;;;;;18.82;41.02;101398.06;5110832;28;19927;-75
2023/06/12 03:32:24;;;;;;;;;;;;;;;18.81;43.27;101406.19;5127098;28;20389;-75
2023/06/12 03:34:54;;;;;;;;;;;;;;;18.81;43.58;101401.69;5126734;28;20469;-75
2023/06/12 03:37:19;;;;;;;;;;;;;;;18.82;43.58;101405.25;5109810;28;20040;-75
2023/06/12 03:39:45;;;;;;;;;;;;;;;18.79;43.72;101408.97;5109830;28;19916;-75
2023/06/12 03:42:10;;;;;;;;;;;;;;;18.78;43.57;101411.69;5110916;28;19923;-75
2023/06/12 03:44:45;;;;;;;;;;;;;;;18.77;43.15;101412.63;5098096;28;19931;-75
2023/06/12 03:47:11;;;;;;;;;;;;;;;18.74;43.20;101418.97;5096936;28;19924;-75
2023/06/12 03:49:39;;;;;;;;;;;;;;;18.72;43.57;101420.88;5113755;28;19927;-75
2023/06/12 03:52:04;;;;;;;;;;;;;;;18.72;43.15;101420.00;5113585;28;19969;-75
2023/06/12 03:54:30;;;;;;;;;;;;;;;18.67;43.27;101422.91;5115312;28;20292;-75
2023/06/12 03:56:55;;;;;;;;;;;;;;;18.64;44.39;101434.66;5115280;28;19919;-75
2023/06/12 03:59:22;;;;;;;;;;;;;;;18.61;43.75;101423.19;5114044;28;19915;-75
2023/06/12 04:01:48;;;;;;;;;;;;;;;18.58;43.78;101426.00;5114329;28;19923;-75
2023/06/12 04:04:14;;;;;;;;;;;;;;;18.56;43.64;101427.88;5115172;28;20457;-75
2023/06/12 04:06:40;;;;;;;;;;;;;;;18.55;43.66;101431.53;5113777;28;20288;-76
2023/06/12 04:09:12;;;;;;;;;;;;;;;18.53;43.57;101431.59;5114813;28;19916;-76
2023/06/12 04:11:38;;;;;;;;;;;;;;;18.51;43.90;101433.47;5130607;27;19950;-76
2023/06/12 04:14:04;;;;;;;;;;;;;;;18.50;44.27;101434.41;5114755;28;20317;-76
2023/06/12 04:16:30;;;;;;;;;;;;;;;18.49;44.35;101446.06;5113290;28;19927;-75
2023/06/12 04:18:56;;;;;;;;;;;;;;;18.48;44.49;101445.19;5113231;28;19930;-76
2023/06/12 04:21:21;;;;;;;;;;;;;;;18.48;44.28;101441.66;5130478;27;19922;-76
2023/06/12 04:23:47;;;;;;;;;;;;;;;18.46;44.82;101444.41;5114791;28;20015;-76
2023/06/12 04:26:14;;;;;;;;;;;;;;;18.46;44.75;101446.22;5114759;28;19916;-76
2023/06/12 04:28:41;;;;;;;;;;;;;;;18.47;44.78;101447.94;5128627;27;19926;-76
2023/06/12 04:31:07;;;;;;;;;;;;;;;18.45;45.15;101444.47;5114539;28;19915;-76
2023/06/12 04:33:35;;;;;;;;;;;;;;;18.47;45.21;101442.56;5112737;27;19924;-76
2023/06/12 04:36:07;;;;;;;;;;;;;;;18.47;45.56;101448.84;5129856;27;19924;-75
2023/06/12 04:38:38;;;;;;;;;;;;;;;18.48;45.91;101447.88;5129838;27;19915;-75
2023/06/12 04:41:05;;;;;;;;;;;;;;;18.50;45.57;101444.28;5129799;27;19939;-75
2023/06/12 04:43:32;;;;;;;;;;;;;;;18.51;46.10;101438.81;5116252;27;19923;-75
2023/06/12 04:45:57;;;;;;;;;;;;;;;18.54;45.99;101436.00;5112730;28;19920;-75
2023/06/12 04:48:23;;;;;;;;;;;;;;;18.56;46.64;101443.97;5095686;28;20242;-75
2023/06/12 04:50:50;;;;;;;;;;;;;;;18.60;46.24;101442.91;5113816;28;20006;-75
2023/06/12 04:53:19;;;;;;;;;;;;;;;18.63;46.45;101440.94;5111149;28;19920;-75
2023/06/12 04:55:50;;;;;;;;;;;;;;;18.70;46.31;101438.88;5095296;28;19915;-75
2023/06/12 04:58:17;;;;;;;;;;;;;;;18.79;46.32;101442.94;5095598;28;20354;-75
2023/06/12 05:00:47;;;;;;;;;;;;;;;18.88;47.41;101446.06;5113408;28;19916;-75
2023/06/12 05:03:16;;;;;;;;;;;;;;;18.97;44.86;101447.47;5129632;27;19971;-75
2023/06/12 05:05:42;;;;;;;;;;;;;;;19.06;46.02;101452.38;5095232;28;20015;-75
2023/06/12 05:08:08;;;;;;;;;;;;;;;19.18;45.66;101450.06;5113991;28;20438;-75
2023/06/12 05:10:33;;;;;;;;;;;;;;;19.28;45.35;101456.72;5112085;28;19924;-75
2023/06/12 05:12:59;;;;;;;;;;;;;;;19.36;43.18;101454.53;5111904;28;19942;-75
2023/06/12 05:15:24;;;;;;;;;;;;;;;19.43;45.60;101453.28;5111494;28;19924;-75
2023/06/12 05:17:49;;;;;;;;;;;;;;;19.48;45.68;101451.25;5119741;27;19916;-75
2023/06/12 05:20:15;;;;;;;;;;;;;;;19.58;45.50;101458.84;5094778;28;20007;-75
2023/06/12 05:22:41;;;;;;;;;;;;;;;19.66;45.40;101456.66;5094775;28;20037;-75
2023/06/12 05:25:07;;;;;;;;;;;;;;;19.75;45.38;101454.41;5128979;27;20369;-75
2023/06/12 05:27:32;;;;;;;;;;;;;;;19.87;44.78;101443.97;5112140;27;19931;-76
2023/06/12 05:29:58;;;;;;;;;;;;;;;19.95;45.18;101447.13;5125881;27;19957;-76
2023/06/12 05:32:23;;;;;;;;;;;;;;;20.04;44.99;101459.25;5128574;27;19931;-75
2023/06/12 05:34:49;;;;;;;;;;;;;;;20.15;45.53;101451.47;5113195;28;19919;-75
2023/06/12 05:37:16;;;;;;;;;;;;;;;20.24;44.22;101450.13;5128240;27;19995;-75
2023/06/12 05:39:42;;;;;;;;;;;;;;;20.32;44.65;101450.59;5128197;27;20330;-75
2023/06/12 05:42:07;;;;;;;;;;;;;;;20.41;43.98;101450.97;5110183;28;19924;-75
2023/06/12 05:44:35;;;;;;;;;;;;;;;20.51;44.45;101447.81;5111204;28;19922;-75
2023/06/12 05:47:00;;;;;;;;;;;;;;;20.60;44.76;101442.81;5094407;28;19915;-75
2023/06/12 05:49:26;;;;;;;;;;;;;;;20.72;42.92;101443.09;5128442;27;20364;-75
2023/06/12 05:51:53;;;;;;;;;;;;;;;20.82;44.56;101438.94;5094560;28;19924;-75
2023/06/12 05:54:19;;;;;;;;;;;;;;;20.94;44.18;101437.41;5094211;28;20000;-75
2023/06/12 05:56:46;;;;;;;;;;;;;;;21.04;44.04;101441.31;5094555;28;19920;-74
2023/06/12 05:59:12;;;;;;;;;;;;;;;21.08;44.09;101440.19;5111111;28;19926;-75
2023/06/12 06:01:39;;;;;;;;;;;;;;;21.16;44.07;101445.13;5111279;28;19915;-74
2023/06/12 06:04:06;;;;;;;;;;;;;;;21.24;43.91;101437.47;5129140;27;19924;-74
2023/06/12 06:06:32;;;;;;;;;;;;;;;21.36;43.44;101441.31;5112190;28;19916;-74
2023/06/12 06:09:00;;;;;;;;;;;;;;;21.44;43.16;101439.94;5095407;28;19922;-75
2023/06/12 06:11:28;;;;;;;;;;;;;;;21.52;42.16;101438.63;5129431;27;19973;-75
2023/06/12 06:13:54;;;;;;;;;;;;;;;21.61;43.25;101444.38;5128030;27;20316;-75
2023/06/12 06:16:19;;;;;;;;;;;;;;;21.71;42.74;101442.00;5127629;27;19919;-76
2023/06/12 06:18:45;;;;;;;;;;;;;;;21.77;42.81;101448.84;5104581;28;19920;-76
2023/06/12 06:21:11;;;;;;;;;;;;;;;21.82;42.77;101444.03;5091176;28;20367;-75
2023/06/12 06:23:36;;;;;;;;;;;;;;;21.86;42.52;101441.06;5095574;28;19919;-76
2023/06/12 06:26:03;;;;;;;;;;;;;;;21.93;42.23;101438.00;5090100;28;19932;-76
2023/06/12 06:28:28;;;;;;;;;;;;;;;22.03;42.07;101447.25;5105801;28;19958;-76
2023/06/12 06:30:54;;;;;;;;;;;;;;;22.12;41.94;101446.72;5100991;28;19951;-76
2023/06/12 06:33:20;;;;;;;;;;;;;;;22.23;41.88;101446.09;5107348;28;19924;-76
2023/06/12 06:35:46;;;;;;;;;;;;;;;22.32;40.65;101446.38;5091878;28;20057;-76
2023/06/12 06:38:11;;;;;;;;;;;;;;;22.43;42.35;101452.97;5091757;28;19924;-76
2023/06/12 06:40:37;;;;;;;;;;;;;;;22.53;42.30;101446.03;5097554;28;19927;-76
2023/06/12 06:43:02;;;;;;;;;;;;;;;22.68;41.96;101447.78;5102203;28;20018;-76
2023/06/12 06:45:42;;;;;;;;;;;;;;;22.81;41.35;101442.44;5097931;28;19920;-76
2023/06/12 06:48:08;;;;;;;;;;;;;;;22.90;40.75;101438.31;5109943;28;19940;-76
2023/06/12 06:50:33;;;;;;;;;;;;;;;22.99;41.26;101440.44;5101685;28;19920;-76
2023/06/12 06:53:02;;;;;;;;;;;;;;;23.11;41.06;101442.34;5105416;28;19928;-76
2023/06/12 06:55:27;;;;;;;;;;;;;;;23.25;39.86;101443.28;5103750;28;20008;-76
2023/06/12 06:57:56;;;;;;;;;;;;;;;23.34;40.68;101453.47;5104056;28;20267;-76
2023/06/12 07:00:22;;;;;;;;;;;;;;;23.40;39.79;101447.69;5096447;28;19920;-76
2023/06/12 07:02:47;;;;;;;;;;;;;;;23.44;39.47;101449.19;5107597;28;19916;-76
2023/06/12 07:05:16;;;;;;;;;;;;;;;23.52;39.82;101444.16;5108778;28;19927;-76
2023/06/12 07:07:43;;;;;;;;;;;;;;;23.61;40.18;101445.34;5104598;28;19924;-80
2023/06/12 07:10:09;;;;;;;;;;;;;;;23.75;39.78;101453.44;5111761;27;19939;-78
2023/06/12 07:12:35;;;;;;;;;;;;;;;23.86;39.61;101444.59;5110023;27;20003;-78
2023/06/12 07:15:01;;;;;;;;;;;;;;;23.94;39.41;101450.38;5106105;28;20050;-78
2023/06/12 07:17:26;;;;;;;;;;;;;;;24.00;39.02;101446.38;5115041;27;19916;-78
2023/06/12 07:19:52;;;;;;;;;;;;;;;24.07;38.86;101446.81;5096174;28;19996;-79
2023/06/12 07:22:17;;;;;;;;;;;;;;;24.12;38.97;101439.25;5102734;28;20361;-78
2023/06/12 07:24:42;;;;;;;;;;;;;;;24.21;38.41;101433.19;5096180;28;19932;-78
2023/06/12 07:27:08;;;;;;;;;;;;;;;24.36;38.78;101436.66;5089234;28;19947;-78
2023/06/12 07:29:34;;;;;;;;;;;;;;;24.54;38.92;101438.09;5102659;28;20294;-77
2023/06/12 07:32:00;;;;;;;;;;;;;;;24.74;39.19;101430.38;5107417;28;20010;-78
2023/06/12 07:34:26;;;;;;;;;;;;;;;24.89;38.57;101437.38;5108801;28;20421;-79
2023/06/12 07:36:52;;;;;;;;;;;;;;;25.01;38.09;101435.63;5097628;28;19951;-78
2023/06/12 07:39:18;;;;;;;;;;;;;;;25.13;38.29;101436.59;5101977;28;20003;-78
2023/06/12 07:41:43;;;;;;;;;;;;;;;25.27;38.07;101425.59;5074346;28;19928;-78
2023/06/12 07:44:12;;;;;;;;;;;;;;;25.38;38.44;101431.09;5103829;28;19927;-79
2023/06/12 07:46:41;;;;;;;;;;;;;;;25.46;37.67;101430.50;5075674;28;20023;-78
2023/06/12 07:49:06;;;;;;;;;;;;;;;25.52;37.71;101428.22;5096725;28;19923;-78
2023/06/12 07:51:32;;;;;;;;;;;;;;;25.63;37.08;101434.66;5092473;28;19916;-77
2023/06/12 07:53:58;;;;;;;;;;;;;;;25.69;37.39;101436.88;5086042;28;19935;-78
2023/06/12 07:56:24;;;;;;;;;;;;;;;25.77;36.61;101433.59;5126200;28;19958;-78
2023/06/12 07:58:54;;;;;;;;;;;;;;;25.83;36.80;101430.41;5074653;28;20338;-78
2023/06/12 08:01:22;;;;;;;;;;;;;;;25.94;36.72;101433.22;5098314;28;20018;-77
2023/06/12 08:03:47;;;;;;;;;;;;;;;26.03;36.53;101437.91;5098911;28;20181;-77
2023/06/12 08:06:15;;;;;;;;;;;;;;;26.11;36.30;101432.78;5108633;28;20315;-78
2023/06/12 08:08:43;;;;;;;;;;;;;;;26.20;36.55;101427.59;5108954;28;20006;-78
2023/06/12 08:11:09;;;;;;;;;;;;;;;26.29;36.62;101429.59;5110345;28;19976;-78
2023/06/12 08:13:35;;;;;;;;;;;;;;;26.44;36.50;101438.38;5109037;28;19924;-78
2023/06/12 08:16:01;;;;;;;;;;;;;;;26.55;35.86;101430.25;5108852;28;19932;-79
2023/06/12 08:18:27;;;;;;;;;;;;;;;26.67;35.76;101436.56;5109208;28;19919;-79
2023/06/12 08:20:53;;;;;;;;;;;;;;;26.78;35.25;101429.28;5108953;28;19978;-79
2023/06/12 08:23:19;;;;;;;;;;;;;;;26.90;35.45;101430.09;5126038;28;20326;-79
2023/06/12 08:25:44;;;;;;;;;;;;;;;27.03;34.66;101430.00;5108965;28;19923;-78
2023/06/12 08:28:10;;;;;;;;;;;;;;;27.15;35.20;101428.97;5110192;28;19958;-80
2023/06/12 08:30:36;;;;;;;;;;;;;;;27.31;34.97;101428.59;5112025;28;19995;-79
2023/06/12 08:33:03;;;;;;;;;;;;;;;27.36;34.75;101426.34;5102641;28;20328;-80
2023/06/12 08:35:28;;;;;;;;;;;;;;;27.43;34.76;101426.69;5099915;28;20287;-80
2023/06/12 08:37:56;;;;;;;;;;;;;;;27.55;34.81;101422.94;5105303;28;19916;-79
2023/06/12 08:40:21;;;;;;;;;;;;;;;27.76;34.41;101424.81;5113286;28;19920;-79
2023/06/12 08:42:51;;;;;;;;;;;;;;;27.93;34.43;101420.69;5110946;28;19926;-80
2023/06/12 08:45:18;;;;;;;;;;;;;;;28.02;33.94;101415.31;5112893;28;19915;-80
2023/06/12 08:47:46;;;;;;;;;;;;;;;28.13;33.49;101410.78;5113206;28;19960;-79
2023/06/12 08:50:11;;;;;;;;;;;;;;;28.20;33.36;101418.28;5113447;28;20033;-80
2023/06/12 08:52:37;;;;;;;;;;;;;;;28.27;33.57;101414.03;5112641;28;20398;-80
2023/06/12 08:55:07;;;;;;;;;;;;;;;28.37;32.94;101410.50;5114121;28;19922;-79
2023/06/12 08:57:34;;;;;;;;;;;;;;;28.43;33.23;101416.25;5113118;28;19915;-80
2023/06/12 08:59:59;;;;;;;;;;;;;;;28.49;33.13;101414.91;5110355;28;20022;-80
2023/06/12 09:02:27;;;;;;;;;;;;;;;28.60;32.95;101406.63;5095028;28;20393;-81
2023/06/12 09:05:02;;;;;;;;;;;;;;;28.73;32.77;101410.00;5113930;28;20371;-80
2023/06/12 09:07:28;;;;;;;;;;;;;;;28.93;31.59;101408.19;5113824;28;19931;-79
2023/06/12 09:09:53;;;;;;;;;;;;;;;29.00;31.61;101404.88;5112101;28;19988;-80
2023/06/12 09:12:19;;;;;;;;;;;;;;;29.03;31.15;101405.47;5112153;28;20243;-80
2023/06/12 09:14:45;;;;;;;;;;;;;;;29.04;31.46;101399.00;5113627;28;19924;-80
2023/06/12 09:17:11;;;;;;;;;;;;;;;29.05;31.67;101400.72;5113703;28;20259;-79
2023/06/12 09:19:39;;;;;;;;;;;;;;;29.06;30.10;101397.03;5113543;28;19923;-78
2023/06/12 09:22:04;;;;;;;;;;;;;;;29.06;30.58;101388.00;5099134;28;20029;-79
2023/06/12 09:24:30;;;;;;;;;;;;;;;29.10;31.26;101395.75;5095023;28;19990;-77
2023/06/12 09:26:55;;;;;;;;;;;;;;;29.13;30.91;101390.03;5113916;28;19922;-77
2023/06/12 09:29:28;;;;;;;;;;;;;;;29.09;29.90;101387.72;5112835;28;20299;-77
2023/06/12 09:31:54;;;;;;;;;;;;;;;29.08;31.13;101381.41;5113340;28;20348;-77
2023/06/12 09:34:20;;;;;;;;;;;;;;;29.02;30.19;101379.19;5112973;28;20318;-78
2023/06/12 09:36:47;;;;;;;;;;;;;;;29.00;30.98;101388.53;5077744;28;19920;-77
2023/06/12 09:39:20;;;;;;;;;;;;;;;29.01;31.77;101382.94;5094809;28;19965;-77
2023/06/12 09:41:49;;;;;;;;;;;;;;;28.99;30.86;101393.13;5107980;28;19959;-77
2023/06/12 09:44:41;;;;;;;;;;;;;;;29.09;31.12;101387.72;5093136;28;19924;-77
2023/06/12 09:47:06;;;;;;;;;;;;;;;29.27;29.78;101385.16;5102698;28;19916;-77
2023/06/12 09:49:33;;;;;;;;;;;;;;;29.45;30.17;101386.19;5109435;28;19926;-77
2023/06/12 09:52:03;;;;;;;;;;;;;;;29.58;29.78;101389.47;5111380;28;19931;-78
2023/06/12 09:54:29;;;;;;;;;;;;;;;29.74;30.10;101385.31;5107282;28;20403;-78
2023/06/12 09:56:57;;;;;;;;;;;;;;;29.91;29.36;101394.66;5112660;28;20019;-77
2023/06/12 09:59:22;;;;;;;;;;;;;;;30.07;29.75;101399.50;5106226;28;19923;-77
2023/06/12 10:01:48;;;;;;;;;;;;;;;30.16;29.42;101388.53;5104735;28;19924;-78
2023/06/12 10:04:17;;;;;;;;;;;;;;;30.25;28.23;101396.91;5093678;28;20405;-77
2023/06/12 10:06:44;;;;;;;;;;;;;;;30.32;28.37;101389.84;5113403;28;19915;-77
2023/06/12 10:09:10;;;;;;;;;;;;;;;30.49;29.07;101383.59;5111084;28;19927;-77
2023/06/12 10:11:37;;;;;;;;;;;;;;;30.64;28.05;101383.97;5112978;28;19920;-77
2023/06/12 10:14:02;;;;;;;;;;;;;;;30.69;28.13;101387.09;5112808;28;19915;-77
2023/06/12 10:16:30;;;;;;;;;;;;;;;30.78;28.85;101385.31;5112343;28;19927;-78
2023/06/12 10:18:56;;;;;;;;;;;;;;;30.87;27.98;101392.63;5104138;28;19922;-77
2023/06/12 10:21:22;;;;;;;;;;;;;;;30.87;27.62;101386.31;5108649;28;20010;-79
2023/06/12 10:23:47;;;;;;;;;;;;;;;30.97;28.08;101377.03;5113905;27;20284;-78
2023/06/12 10:26:14;;;;;;;;;;;;;;;31.11;28.20;101378.38;5106928;28;19915;-78
2023/06/12 10:28:39;;;;;;;;;;;;;;;31.20;27.24;101377.44;5104665;28;20354;-78
2023/06/12 10:31:10;;;;;;;;;;;;;;;31.29;27.31;101376.50;5107287;28;19926;-77
2023/06/12 10:33:36;;;;;;;;;;;;;;;31.48;27.77;101369.19;5105800;28;20978;-77
2023/06/12 10:36:08;;;;;;;;;;;;;;;31.65;27.68;101375.66;5101785;28;20217;-77
2023/06/12 10:38:42;;;;;;;;;;;;;;;31.77;27.08;101363.41;5119748;27;19915;-77
2023/06/12 10:41:08;;;;;;;;;;;;;;;31.88;26.64;101371.41;5111985;28;19967;-77
2023/06/12 10:43:33;;;;;;;;;;;;;;;31.89;27.40;101366.78;5097882;28;19954;-77
2023/06/12 10:45:58;;;;;;;;;;;;;;;31.93;26.86;101369.03;5097664;28;20276;-77
2023/06/12 10:48:24;;;;;;;;;;;;;;;31.87;26.29;101358.69;5102574;28;19924;-77
2023/06/12 10:50:54;;;;;;;;;;;;;;;31.98;27.30;101362.25;5109463;28;20275;-78
2023/06/12 10:53:21;;;;;;;;;;;;;;;32.23;26.92;101352.31;5111767;28;20350;-78
2023/06/12 10:55:46;;;;;;;;;;;;;;;32.37;26.91;101359.03;5110077;28;19916;-78
2023/06/12 10:58:12;;;;;;;;;;;;;;;32.39;27.37;101354.25;5103195;28;19920;-77
2023/06/12 11:00:42;;;;;;;;;;;;;;;32.51;27.27;101345.59;5105186;28;19920;-78
2023/06/12 11:03:12;;;;;;;;;;;;;;;32.77;26.80;101356.50;5098696;28;20303;-78
2023/06/12 11:05:39;;;;;;;;;;;;;;;32.92;26.58;101351.22;5110091;28;19920;-78
2023/06/12 11:08:08;;;;;;;;;;;;;;;32.98;27.20;101345.06;5096999;28;20282;-78
2023/06/12 11:10:34;;;;;;;;;;;;;;;33.10;25.83;101339.28;5111350;28;19916;-77
2023/06/12 11:13:01;;;;;;;;;;;;;;;33.18;25.12;101347.53;5103428;28;19920;-78
2023/06/12 11:15:26;;;;;;;;;;;;;;;33.11;26.45;101339.13;5107611;28;19919;-78
2023/06/12 11:17:52;;;;;;;;;;;;;;;33.08;25.70;101344.09;5089197;28;20219;-77
2023/06/12 11:20:19;;;;;;;;;;;;;;;33.11;25.65;101339.13;5110058;28;19976;-78
2023/06/12 11:22:47;;;;;;;;;;;;;;;33.19;26.60;101339.13;5111349;28;20035;-77
2023/06/12 11:25:13;;;;;;;;;;;;;;;33.30;25.47;101331.59;5126756;27;19942;-78
2023/06/12 11:27:38;;;;;;;;;;;;;;;33.54;25.98;101339.84;5105645;28;19919;-77
2023/06/12 11:30:08;;;;;;;;;;;;;;;33.67;26.43;101331.09;5105021;28;20383;-78
2023/06/12 11:32:33;;;;;;;;;;;;;;;33.70;25.35;101335.38;5101977;28;19951;-79
2023/06/12 11:35:01;;;;;;;;;;;;;;;33.70;24.35;101330.75;5105268;28;19947;-78
2023/06/12 11:37:27;;;;;;;;;;;;;;;33.70;24.27;101329.91;5106604;28;19974;-77
2023/06/12 11:39:59;;;;;;;;;;;;;;;33.82;24.30;101329.34;5111251;28;20303;-78
2023/06/12 11:42:25;;;;;;;;;;;;;;;33.94;25.89;101331.75;5108943;28;20429;-77
2023/06/12 11:44:51;;;;;;;;;;;;;;;34.17;25.33;101329.13;5105027;28;19924;-77
2023/06/12 11:47:18;;;;;;;;;;;;;;;34.35;26.04;101326.16;5111269;28;19919;-79
2023/06/12 11:49:43;;;;;;;;;;;;;;;34.47;24.38;101324.72;5109443;28;20288;-77
2023/06/12 11:52:09;;;;;;;;;;;;;;;34.49;25.62;101311.66;5111051;28;19919;-77
2023/06/12 11:54:53;;;;;;;;;;;;;;;34.68;25.19;101324.16;5106795;28;20413;-76
2023/06/12 11:57:18;;;;;;;;;;;;;;;34.88;24.09;101314.38;5109360;28;20388;-75
2023/06/12 11:59:45;;;;;;;;;;;;;;;35.05;25.17;101315.13;5106034;28;19916;-75
2023/06/12 12:02:10;;;;;;;;;;;;;;;35.15;24.69;101309.44;5101222;28;19916;-76
2023/06/12 12:04:37;;;;;;;;;;;;;;;35.26;25.12;101306.25;5092869;28;20275;-76
2023/06/12 12:07:03;;;;;;;;;;;;;;;35.48;24.42;101304.50;5101122;28;20281;-76
2023/06/12 12:09:28;;;;;;;;;;;;;;;35.56;24.06;101308.22;5115125;28;19924;-76
2023/06/12 12:11:54;;;;;;;;;;;;;;;35.62;24.47;101311.13;5105449;28;19928;-77
2023/06/12 12:14:19;;;;;;;;;;;;;;;35.65;24.39;101309.88;5104511;28;20267;-77
2023/06/12 12:16:45;;;;;;;;;;;;;;;35.68;24.54;101307.63;5113653;28;19996;-76
2023/06/12 12:19:16;;;;;;;;;;;;;;;35.72;23.64;101299.81;5114739;28;19919;-77
2023/06/12 12:21:46;;;;;;;;;;;;;;;35.58;23.87;101297.88;5112846;28;20374;-76
2023/06/12 12:24:12;;;;;;;;;;;;;;;35.59;24.00;101306.00;5094503;28;19922;-76
2023/06/12 12:26:41;;;;;;;;;;;;;;;35.72;23.95;101292.41;5095017;28;19959;-77
2023/06/12 12:29:07;;;;;;;;;;;;;;;35.92;24.34;101292.72;5107507;28;20366;-76
2023/06/12 12:31:32;;;;;;;;;;;;;;;36.14;23.86;101295.59;5107971;28;19924;-76
2023/06/12 12:33:58;;;;;;;;;;;;;;;35.95;22.84;101302.50;5099953;28;19938;-76